createdAt,value
2022-09-24T00:04:48.923Z,53.43
2022-09-24T00:09:53.896Z,54.63
2022-09-24T00:14:59.209Z,55.73
2022-09-24T00:20:05.378Z,57.07
2022-09-24T00:25:29.671Z,57.38
2022-09-24T00:30:34.717Z,55.97
2022-09-24T00:35:43.113Z,56.33
2022-09-24T00:40:48.837Z,56.00
2022-09-24T00:45:59.697Z,55.10
2022-09-24T00:51:06.461Z,55.20
2022-09-24T00:56:15.699Z,56.67
2022-09-24T01:01:24.568Z,55.63
2022-09-24T01:06:30.587Z,56.88
2022-09-24T01:11:58.327Z,54.40
2022-09-24T01:17:10.505Z,54.03
2022-09-24T01:22:30.387Z,54.14
2022-09-24T01:28:13.559Z,54.10
2022-09-24T01:33:21.792Z,65.25
2022-09-24T01:38:33.717Z,57.15
2022-09-24T01:43:39.229Z,58.87
2022-09-24T01:48:44.573Z,55.63
2022-09-24T01:53:52.557Z,56.43
2022-09-24T01:59:00.758Z,58.20
2022-09-24T02:04:09.518Z,57.47
2022-09-24T02:09:32.557Z,58.72
2022-09-24T02:14:43.880Z,60.30
2022-09-24T02:19:49.927Z,58.57
2022-09-24T02:25:00.510Z,59.17
2022-09-24T02:30:08.874Z,58.47
2022-09-24T02:35:14.319Z,58.47
2022-09-24T02:40:22.749Z,57.33
2022-09-24T02:45:28.068Z,56.57
2022-09-24T02:50:33.180Z,57.43
2022-09-24T02:55:38.087Z,56.67
2022-09-24T03:00:44.120Z,55.93
2022-09-24T03:05:49.149Z,56.27
2022-09-24T03:10:56.368Z,55.10
2022-09-24T03:16:01.671Z,54.30
2022-09-24T03:21:09.878Z,55.00
2022-09-24T03:26:17.474Z,53.47
2022-09-24T03:31:24.712Z,53.33
2022-09-24T03:36:30.198Z,52.90
2022-09-24T03:41:35.598Z,53.20
2022-09-24T03:46:40.887Z,52.93
2022-09-24T03:51:46.952Z,52.60
2022-09-24T03:56:52.210Z,52.83
2022-09-24T04:01:57.747Z,52.97
2022-09-24T04:07:02.672Z,54.80
2022-09-24T04:12:07.915Z,52.88
2022-09-24T04:17:14.377Z,52.57
2022-09-24T04:22:19.549Z,52.60
2022-09-24T04:27:25.070Z,53.47
2022-09-24T04:32:30.301Z,52.77
2022-09-24T04:37:36.093Z,51.90
2022-09-24T04:42:42.150Z,52.37
2022-09-24T04:47:53.898Z,51.63
2022-09-24T04:52:59.424Z,50.97
2022-09-24T04:58:05.381Z,51.73
2022-09-24T05:03:11.688Z,51.60
2022-09-24T05:08:17.212Z,51.30
2022-09-24T05:13:23.238Z,50.55
2022-09-24T05:18:29.536Z,53.58
2022-09-24T05:23:35.106Z,51.27
2022-09-24T05:28:42.491Z,51.23
2022-09-24T05:33:47.664Z,50.92
2022-09-24T05:38:52.899Z,51.17
2022-09-24T05:43:59.699Z,52.00
2022-09-24T05:54:08.716Z,50.43
2022-09-24T05:59:14.781Z,51.50
2022-09-24T06:04:19.954Z,51.57
2022-09-24T06:09:25.018Z,52.67
2022-09-24T06:14:30.938Z,50.90
2022-09-24T06:19:39.473Z,51.07
2022-09-24T06:24:44.471Z,51.40
2022-09-24T06:29:49.627Z,52.15
2022-09-24T06:34:58.889Z,54.50
2022-09-24T06:40:01.498Z,55.95
2022-09-24T06:45:07.202Z,58.93
2022-09-24T06:50:12.504Z,58.13
2022-09-24T06:55:19.029Z,56.37
2022-09-24T07:00:24.951Z,55.73
2022-09-24T07:05:30.789Z,57.57
2022-09-24T07:15:42.169Z,56.57
2022-09-24T07:20:56.679Z,57.30
2022-09-24T07:26:01.986Z,58.23
2022-09-24T07:31:07.020Z,56.97
2022-09-24T07:36:12.403Z,57.50
2022-09-24T07:41:18.658Z,57.53
2022-09-24T07:46:25.407Z,57.90
2022-09-24T07:51:31.549Z,57.45
2022-09-24T07:56:37.209Z,55.17
2022-09-24T08:01:44.499Z,57.83
2022-09-24T08:06:49.785Z,57.37
2022-09-24T08:11:55.466Z,56.07
2022-09-24T08:17:00.280Z,56.97
2022-09-24T08:22:08.597Z,57.07
2022-09-24T08:27:17.292Z,58.03
2022-09-24T08:32:22.280Z,58.70
2022-09-24T08:37:29.259Z,56.77
2022-09-24T08:42:46.728Z,55.90
2022-09-24T08:47:56.347Z,57.53
2022-09-24T08:53:24.136Z,56.33
2022-09-24T08:58:47.829Z,56.57
2022-09-24T09:03:56.205Z,56.67
2022-09-24T09:09:20.372Z,56.17
2022-09-24T09:14:42.154Z,56.43
2022-09-24T09:19:53.634Z,55.77
2022-09-24T09:25:03.863Z,56.10
2022-09-24T09:30:14.004Z,53.77
2022-09-24T09:35:34.903Z,54.00
2022-09-24T09:40:55.433Z,54.17
2022-09-24T09:46:16.245Z,53.37
2022-09-24T09:51:23.501Z,53.83
2022-09-24T09:56:41.256Z,54.03
2022-09-24T10:01:56.696Z,53.80
2022-09-24T10:07:11.605Z,54.23
2022-09-24T10:12:24.882Z,53.90
2022-09-24T10:17:36.680Z,54.17
2022-09-24T10:22:47.834Z,54.15
2022-09-24T10:28:19.153Z,54.60
2022-09-24T10:33:24.594Z,54.00
2022-09-24T10:38:31.916Z,54.03
2022-09-24T10:48:47.423Z,53.80
2022-09-24T10:54:21.100Z,54.57
2022-09-24T10:59:52.877Z,54.00
2022-09-24T11:05:07.168Z,53.87
2022-09-24T11:10:37.076Z,54.17
2022-09-24T11:16:20.050Z,54.43
2022-09-24T11:21:46.380Z,54.67
2022-09-24T11:27:19.335Z,54.18
2022-09-24T11:32:33.659Z,54.33
2022-09-24T11:37:51.227Z,54.48
2022-09-24T11:43:03.315Z,54.40
2022-09-24T11:48:20.500Z,54.35
2022-09-24T11:53:34.861Z,54.30
2022-09-24T11:59:01.211Z,54.33
2022-09-24T12:04:25.344Z,53.83
2022-09-24T12:09:40.051Z,53.65
2022-09-24T12:14:54.515Z,54.15
2022-09-24T12:20:02.869Z,54.20
2022-09-24T12:25:13.527Z,54.10
2022-09-24T12:30:58.163Z,54.53
2022-09-24T12:36:26.474Z,54.27
2022-09-24T12:41:39.985Z,54.57
2022-09-24T12:46:56.516Z,54.30
2022-09-24T12:57:26.475Z,53.83
2022-09-24T13:02:35.399Z,53.73
2022-09-24T13:07:44.395Z,54.37
2022-09-24T13:12:50.346Z,54.63
2022-09-24T13:23:22.506Z,53.92
2022-09-24T13:28:38.467Z,54.50
2022-09-24T13:33:43.951Z,54.27
2022-09-24T13:38:58.129Z,54.40
2022-09-24T13:44:06.995Z,54.17
2022-09-24T13:49:18.743Z,54.33
2022-09-24T13:54:34.554Z,54.77
2022-09-24T13:59:40.243Z,53.90
2022-09-24T14:04:47.843Z,53.60
2022-09-24T14:10:05.167Z,53.87
2022-09-24T14:15:19.650Z,54.27
2022-09-24T14:20:27.222Z,53.63
2022-09-24T14:25:36.243Z,53.57
2022-09-24T14:30:56.560Z,53.33
2022-09-24T14:36:04.710Z,53.90
2022-09-24T14:41:25.079Z,53.50
2022-09-24T14:46:37.602Z,53.63
2022-09-24T14:52:00.800Z,53.50
2022-09-24T14:57:25.773Z,53.60
2022-09-24T15:16:52.223Z,54.57
2022-09-24T15:22:00.538Z,53.80
2022-09-24T15:27:21.102Z,57.17
2022-09-24T15:32:28.705Z,55.88
2022-09-24T15:37:33.541Z,55.97
2022-09-24T15:42:39.693Z,54.40
2022-09-24T15:47:45.177Z,54.20
2022-09-24T15:52:55.282Z,53.67
2022-09-24T15:58:01.917Z,54.83
2022-09-24T16:03:08.322Z,55.07
2022-09-24T16:08:13.769Z,54.40
2022-09-24T16:13:22.238Z,54.43
2022-09-24T16:18:28.149Z,53.60
2022-09-24T16:23:33.951Z,53.93
2022-09-24T16:28:38.780Z,53.53
2022-09-24T16:33:43.742Z,53.97
2022-09-24T16:38:49.124Z,53.10
2022-09-24T16:43:58.600Z,53.10
2022-09-24T16:49:05.854Z,53.93
2022-09-24T16:54:12.316Z,53.87
2022-09-24T16:59:17.990Z,53.92
2022-09-24T17:04:22.852Z,52.83
2022-09-24T17:09:46.849Z,52.03
2022-09-24T17:14:51.897Z,52.87
2022-09-24T17:19:57.149Z,53.50
2022-09-24T17:25:02.898Z,53.23
2022-09-24T17:30:10.099Z,52.80
2022-09-24T17:35:15.951Z,53.17
2022-09-24T17:40:24.097Z,53.13
2022-09-24T17:45:29.925Z,53.33
2022-09-24T17:50:35.260Z,53.37
2022-09-24T17:55:44.028Z,53.07
2022-09-24T18:00:51.608Z,54.20
2022-09-24T18:06:01.635Z,54.27
2022-09-24T18:11:14.193Z,57.73
2022-09-24T18:16:21.454Z,56.27
2022-09-24T18:21:30.155Z,57.58
2022-09-24T18:26:37.421Z,58.73
2022-09-24T18:31:43.262Z,53.70
2022-09-24T18:36:48.558Z,53.47
2022-09-24T18:41:54.974Z,53.37
2022-09-24T18:52:05.325Z,55.63
2022-09-24T18:57:10.724Z,52.87
2022-09-24T19:02:16.327Z,53.33
2022-09-24T19:07:21.791Z,53.87
2022-09-24T19:12:29.180Z,55.28
2022-09-24T19:17:36.739Z,52.63
2022-09-24T19:22:46.259Z,54.67
2022-09-24T19:27:55.318Z,55.03
2022-09-24T19:33:01.470Z,55.58
2022-09-24T19:43:13.697Z,64.10
2022-09-24T19:48:19.683Z,83.37
2022-09-24T19:53:24.937Z,72.50
2022-09-24T19:58:30.424Z,64.07
2022-09-24T20:03:38.694Z,57.88
2022-09-24T20:08:44.599Z,54.30
2022-09-24T20:13:51.114Z,55.13
2022-09-24T20:18:58.174Z,54.43
2022-09-24T20:24:05.451Z,55.60
2022-09-24T20:29:12.323Z,55.87
2022-09-24T20:34:19.178Z,55.50
2022-09-24T20:39:24.145Z,55.27
2022-09-24T20:44:30.627Z,59.50
2022-09-24T20:54:40.182Z,57.57
2022-09-24T20:59:46.095Z,55.00
2022-09-24T21:04:52.419Z,54.50
2022-09-24T21:09:57.230Z,54.93
2022-09-24T21:15:02.480Z,62.53
2022-09-24T21:20:08.452Z,69.40
2022-09-24T21:25:30.351Z,71.97
2022-09-24T21:30:22.029Z,69.23
2022-09-24T21:35:27.428Z,64.90
2022-09-24T21:40:34.564Z,60.43
2022-09-24T21:45:40.211Z,60.37
2022-09-24T21:50:45.722Z,60.47
2022-09-24T21:55:50.799Z,59.30
2022-09-24T22:00:56.996Z,59.37
2022-09-24T22:06:04.627Z,61.00
2022-09-24T22:11:11.947Z,60.93
2022-09-24T22:16:17.750Z,58.17
2022-09-24T22:21:22.907Z,55.17
2022-09-24T22:26:29.632Z,53.17
2022-09-24T22:31:34.972Z,55.17
2022-09-24T22:36:39.939Z,54.50
2022-09-24T22:41:45.191Z,56.07
2022-09-24T22:46:50.246Z,55.93
2022-09-24T22:51:55.093Z,54.90
2022-09-24T22:57:00.786Z,52.37
2022-09-24T23:02:10.784Z,55.00
2022-09-24T23:07:15.656Z,54.03
2022-09-24T23:12:21.166Z,59.97
2022-09-24T23:17:27.357Z,54.13
2022-09-24T23:22:32.919Z,56.27
2022-09-24T23:27:38.075Z,55.60
2022-09-24T23:32:42.933Z,54.40
2022-09-24T23:37:48.472Z,52.50
2022-09-24T23:42:54.725Z,54.85
2022-09-24T23:47:59.613Z,53.17
2022-09-24T23:53:05.081Z,53.13
2022-09-24T23:58:11.201Z,51.20
